HellasGA Home

KJFK IMC2

KJFK 231051Z 04020G27KT 1/2SM R04R/3000V4000FT SN FZFG VV007 M02/M04 A2984 RMK AO2 PK WND 03033/1041 SLP104 SNINCR 2/6 P0002 T10221039

Photo info

Random image

Popular tags